sensor_id;sensor_type;location;lat;lon;timestamp;pressure;altitude;pressure_sealevel;temperature;humidity
64614;BME280;51025;37.772;-122.432;2023-04-24T00:01:11;100793.39;;;22.21;27.67
64614;BME280;51025;37.772;-122.432;2023-04-24T00:03:39;100794.23;;;21.71;27.70
64614;BME280;51025;37.772;-122.432;2023-04-24T00:06:07;100794.61;;;21.34;27.98
64614;BME280;51025;37.772;-122.432;2023-04-24T00:08:35;100793.78;;;21.86;27.63
64614;BME280;51025;37.772;-122.432;2023-04-24T00:11:03;100792.73;;;22.16;27.64
64614;BME280;51025;37.772;-122.432;2023-04-24T00:13:31;100798.79;;;21.59;27.80
64614;BME280;51025;37.772;-122.432;2023-04-24T00:15:59;100797.29;;;21.61;27.79
64614;BME280;51025;37.772;-122.432;2023-04-24T00:18:27;100801.07;;;22.15;27.61
64614;BME280;51025;37.772;-122.432;2023-04-24T00:20:56;100801.85;;;21.41;27.98
64614;BME280;51025;37.772;-122.432;2023-04-24T00:23:23;100809.67;;;21.32;28.04
64614;BME280;51025;37.772;-122.432;2023-04-24T00:25:52;100805.38;;;21.67;27.73
64614;BME280;51025;37.772;-122.432;2023-04-24T00:28:20;100804.40;;;21.49;27.93
64614;BME280;51025;37.772;-122.432;2023-04-24T00:30:49;100799.21;;;21.39;27.91
64614;BME280;51025;37.772;-122.432;2023-04-24T00:33:17;100798.57;;;21.63;27.72
64614;BME280;51025;37.772;-122.432;2023-04-24T00:35:46;100793.95;;;21.29;27.96
64614;BME280;51025;37.772;-122.432;2023-04-24T00:38:14;100795.09;;;21.30;27.89
64614;BME280;51025;37.772;-122.432;2023-04-24T00:40:42;100797.20;;;21.80;27.84
64614;BME280;51025;37.772;-122.432;2023-04-24T00:43:10;100799.61;;;21.61;27.98
64614;BME280;51025;37.772;-122.432;2023-04-24T00:45:39;100796.76;;;21.92;27.88
64614;BME280;51025;37.772;-122.432;2023-04-24T00:48:07;100795.74;;;21.82;27.77
64614;BME280;51025;37.772;-122.432;2023-04-24T00:50:37;100798.47;;;21.59;27.95
64614;BME280;51025;37.772;-122.432;2023-04-24T00:53:05;100800.70;;;21.44;28.32
64614;BME280;51025;37.772;-122.432;2023-04-24T00:55:33;100803.15;;;21.50;27.94
64614;BME280;51025;37.772;-122.432;2023-04-24T00:58:01;100807.67;;;22.08;27.77
64614;BME280;51025;37.772;-122.432;2023-04-24T01:00:29;100805.17;;;21.83;27.66
64614;BME280;51025;37.772;-122.432;2023-04-24T01:02:59;100801.34;;;21.49;27.68
64614;BME280;51025;37.772;-122.432;2023-04-24T01:05:29;100802.10;;;21.37;27.85
64614;BME280;51025;37.772;-122.432;2023-04-24T01:07:59;100801.10;;;21.63;27.48
64614;BME280;51025;37.772;-122.432;2023-04-24T01:10:28;100806.11;;;21.78;27.60
64614;BME280;51025;37.772;-122.432;2023-04-24T01:12:58;100802.21;;;21.70;27.67
64614;BME280;51025;37.772;-122.432;2023-04-24T01:15:27;100805.98;;;21.91;27.46
64614;BME280;51025;37.772;-122.432;2023-04-24T01:17:55;100805.95;;;21.58;27.31
64614;BME280;51025;37.772;-122.432;2023-04-24T01:20:25;100807.47;;;21.23;28.02
64614;BME280;51025;37.772;-122.432;2023-04-24T01:22:55;100805.95;;;21.96;27.47
64614;BME280;51025;37.772;-122.432;2023-04-24T01:25:23;100806.22;;;21.51;27.75
64614;BME280;51025;37.772;-122.432;2023-04-24T01:27:53;100807.04;;;21.40;28.09
64614;BME280;51025;37.772;-122.432;2023-04-24T01:30:21;100806.20;;;21.80;28.06
64614;BME280;51025;37.772;-122.432;2023-04-24T01:32:49;100812.27;;;21.10;28.11
64614;BME280;51025;37.772;-122.432;2023-04-24T01:35:18;100803.16;;;21.70;28.05
64614;BME280;51025;37.772;-122.432;2023-04-24T01:37:46;100798.44;;;21.89;27.71
64614;BME280;51025;37.772;-122.432;2023-04-24T01:40:15;100801.00;;;21.31;28.43
64614;BME280;51025;37.772;-122.432;2023-04-24T01:42:43;100803.00;;;22.37;28.19
64614;BME280;51025;37.772;-122.432;2023-04-24T01:45:12;100808.13;;;21.11;28.88
64614;BME280;51025;37.772;-122.432;2023-04-24T01:47:41;100804.75;;;22.29;28.78
64614;BME280;51025;37.772;-122.432;2023-04-24T01:50:10;100808.64;;;21.75;28.90
64614;BME280;51025;37.772;-122.432;2023-04-24T01:52:38;100811.06;;;20.84;29.75
64614;BME280;51025;37.772;-122.432;2023-04-24T01:55:08;100801.88;;;21.36;29.42
64614;BME280;51025;37.772;-122.432;2023-04-24T01:57:37;100793.93;;;21.48;29.33
64614;BME280;51025;37.772;-122.432;2023-04-24T02:00:06;100792.09;;;21.82;28.96
64614;BME280;51025;37.772;-122.432;2023-04-24T02:02:35;100789.52;;;22.27;29.30
64614;BME280;51025;37.772;-122.432;2023-04-24T02:05:05;100791.07;;;21.55;30.11
64614;BME280;51025;37.772;-122.432;2023-04-24T02:07:34;100787.92;;;21.70;29.55
64614;BME280;51025;37.772;-122.432;2023-04-24T02:10:02;100788.44;;;21.26;29.93
64614;BME280;51025;37.772;-122.432;2023-04-24T02:12:30;100785.91;;;21.29;29.72
64614;BME280;51025;37.772;-122.432;2023-04-24T02:14:58;100786.94;;;21.42;29.82
64614;BME280;51025;37.772;-122.432;2023-04-24T02:17:26;100793.48;;;20.78;30.37
64614;BME280;51025;37.772;-122.432;2023-04-24T02:19:55;100795.66;;;21.30;30.46
64614;BME280;51025;37.772;-122.432;2023-04-24T02:22:23;100802.37;;;21.17;30.06
64614;BME280;51025;37.772;-122.432;2023-04-24T02:24:51;100796.87;;;21.79;29.91
64614;BME280;51025;37.772;-122.432;2023-04-24T02:27:19;100795.80;;;21.04;29.74
64614;BME280;51025;37.772;-122.432;2023-04-24T02:29:47;100795.57;;;21.03;29.65
64614;BME280;51025;37.772;-122.432;2023-04-24T02:32:16;100798.71;;;20.67;30.26
64614;BME280;51025;37.772;-122.432;2023-04-24T02:34:44;100798.50;;;21.34;29.54
64614;BME280;51025;37.772;-122.432;2023-04-24T02:37:12;100801.59;;;21.84;29.38
64614;BME280;51025;37.772;-122.432;2023-04-24T02:39:40;100808.46;;;20.67;29.66
64614;BME280;51025;37.772;-122.432;2023-04-24T02:42:08;100808.24;;;20.72;29.61
64614;BME280;51025;37.772;-122.432;2023-04-24T02:44:38;100805.07;;;21.49;29.09
64614;BME280;51025;37.772;-122.432;2023-04-24T02:47:06;100806.98;;;21.60;28.80
64614;BME280;51025;37.772;-122.432;2023-04-24T02:49:34;100812.85;;;21.45;29.41
64614;BME280;51025;37.772;-122.432;2023-04-24T02:52:04;100816.33;;;21.04;29.77
64614;BME280;51025;37.772;-122.432;2023-04-24T02:54:32;100818.02;;;20.26;29.74
64614;BME280;51025;37.772;-122.432;2023-04-24T02:57:02;100817.64;;;21.11;29.35
64614;BME280;51025;37.772;-122.432;2023-04-24T02:59:30;100825.70;;;20.66;29.63
64614;BME280;51025;37.772;-122.432;2023-04-24T03:01:58;100819.92;;;22.16;28.64
64614;BME280;51025;37.772;-122.432;2023-04-24T03:04:27;100822.25;;;21.14;28.80
64614;BME280;51025;37.772;-122.432;2023-04-24T03:06:55;100822.62;;;21.60;28.32
64614;BME280;51025;37.772;-122.432;2023-04-24T03:09:23;100827.69;;;21.42;28.97
64614;BME280;51025;37.772;-122.432;2023-04-24T03:11:51;100831.66;;;20.25;29.28
64614;BME280;51025;37.772;-122.432;2023-04-24T03:14:19;100837.31;;;21.89;28.47
64614;BME280;51025;37.772;-122.432;2023-04-24T03:16:48;100843.74;;;20.79;29.33
64614;BME280;51025;37.772;-122.432;2023-04-24T03:19:17;100844.72;;;22.20;28.11
64614;BME280;51025;37.772;-122.432;2023-04-24T03:21:45;100845.79;;;20.89;28.86
64614;BME280;51025;37.772;-122.432;2023-04-24T03:24:13;100855.27;;;20.47;28.77
64614;BME280;51025;37.772;-122.432;2023-04-24T03:26:42;100851.08;;;21.30;28.29
64614;BME280;51025;37.772;-122.432;2023-04-24T03:29:10;100848.15;;;22.29;27.81
64614;BME280;51025;37.772;-122.432;2023-04-24T03:31:39;100844.74;;;21.92;28.08
64614;BME280;51025;37.772;-122.432;2023-04-24T03:34:07;100850.86;;;21.82;27.79
64614;BME280;51025;37.772;-122.432;2023-04-24T03:36:36;100853.87;;;21.06;28.29
64614;BME280;51025;37.772;-122.432;2023-04-24T03:39:04;100853.45;;;21.30;28.12
64614;BME280;51025;37.772;-122.432;2023-04-24T03:41:32;100849.98;;;21.50;27.54
64614;BME280;51025;37.772;-122.432;2023-04-24T03:44:01;100848.12;;;22.22;27.49
64614;BME280;51025;37.772;-122.432;2023-04-24T03:46:30;100853.78;;;21.55;27.44
64614;BME280;51025;37.772;-122.432;2023-04-24T03:48:59;100856.20;;;21.68;27.84
64614;BME280;51025;37.772;-122.432;2023-04-24T03:51:27;100856.78;;;21.80;27.34
64614;BME280;51025;37.772;-122.432;2023-04-24T03:53:55;100863.14;;;20.91;27.78
64614;BME280;51025;37.772;-122.432;2023-04-24T03:56:24;100857.64;;;21.65;27.49
64614;BME280;51025;37.772;-122.432;2023-04-24T03:58:52;100856.62;;;21.90;27.23
64614;BME280;51025;37.772;-122.432;2023-04-24T04:01:21;100855.85;;;21.70;27.38
64614;BME280;51025;37.772;-122.432;2023-04-24T04:03:49;100861.97;;;21.49;27.77
64614;BME280;51025;37.772;-122.432;2023-04-24T04:06:17;100865.27;;;22.12;27.21
64614;BME280;51025;37.772;-122.432;2023-04-24T04:08:46;100870.63;;;22.21;27.10
64614;BME280;51025;37.772;-122.432;2023-04-24T04:11:14;100863.54;;;21.63;27.43
64614;BME280;51025;37.772;-122.432;2023-04-24T04:13:42;100873.65;;;20.63;27.95
64614;BME280;51025;37.772;-122.432;2023-04-24T04:16:11;100876.43;;;21.22;27.48
64614;BME280;51025;37.772;-122.432;2023-04-24T04:18:39;100879.66;;;20.09;28.33
64614;BME280;51025;37.772;-122.432;2023-04-24T04:21:07;100887.37;;;20.21;28.41
64614;BME280;51025;37.772;-122.432;2023-04-24T04:23:35;100881.94;;;21.01;27.81
64614;BME280;51025;37.772;-122.432;2023-04-24T04:26:04;100888.49;;;21.63;27.30
64614;BME280;51025;37.772;-122.432;2023-04-24T04:28:33;100892.78;;;21.12;27.64
64614;BME280;51025;37.772;-122.432;2023-04-24T04:31:02;100894.22;;;21.42;27.34
64614;BME280;51025;37.772;-122.432;2023-04-24T04:33:31;100896.43;;;20.89;27.69
64614;BME280;51025;37.772;-122.432;2023-04-24T04:35:59;100899.13;;;20.20;28.23
64614;BME280;51025;37.772;-122.432;2023-04-24T04:38:28;100909.37;;;20.21;28.63
64614;BME280;51025;37.772;-122.432;2023-04-24T04:40:56;100916.51;;;19.42;28.54
64614;BME280;51025;37.772;-122.432;2023-04-24T04:43:25;100916.05;;;20.44;27.84
64614;BME280;51025;37.772;-122.432;2023-04-24T04:45:53;100921.96;;;20.43;27.85
64614;BME280;51025;37.772;-122.432;2023-04-24T04:48:22;100936.08;;;19.67;28.58
64614;BME280;51025;37.772;-122.432;2023-04-24T04:50:50;100932.59;;;20.78;27.56
64614;BME280;51025;37.772;-122.432;2023-04-24T04:53:18;100935.78;;;19.88;28.32
64614;BME280;51025;37.772;-122.432;2023-04-24T04:55:47;100932.27;;;20.52;27.71
64614;BME280;51025;37.772;-122.432;2023-04-24T04:58:15;100936.78;;;19.34;28.45
64614;BME280;51025;37.772;-122.432;2023-04-24T05:00:44;100936.67;;;20.53;27.65
64614;BME280;51025;37.772;-122.432;2023-04-24T05:03:13;100942.44;;;20.43;27.76
64614;BME280;51025;37.772;-122.432;2023-04-24T05:05:41;100942.66;;;21.24;27.06
64614;BME280;51025;37.772;-122.432;2023-04-24T05:08:09;100941.70;;;20.65;27.52
64614;BME280;51025;37.772;-122.432;2023-04-24T05:10:38;100937.78;;;20.56;27.68
64614;BME280;51025;37.772;-122.432;2023-04-24T05:13:06;100935.88;;;20.89;27.50
64614;BME280;51025;37.772;-122.432;2023-04-24T05:15:34;100933.71;;;21.63;26.93
64614;BME280;51025;37.772;-122.432;2023-04-24T05:18:04;100931.92;;;21.43;26.72
64614;BME280;51025;37.772;-122.432;2023-04-24T05:20:32;100929.76;;;21.65;26.85
64614;BME280;51025;37.772;-122.432;2023-04-24T05:23:00;100926.18;;;21.66;26.87
64614;BME280;51025;37.772;-122.432;2023-04-24T05:25:28;100927.38;;;21.54;26.96
64614;BME280;51025;37.772;-122.432;2023-04-24T05:27:58;100931.03;;;21.62;26.90
64614;BME280;51025;37.772;-122.432;2023-04-24T05:30:26;100932.86;;;21.74;26.80
64614;BME280;51025;37.772;-122.432;2023-04-24T05:32:54;100934.93;;;21.09;27.19
64614;BME280;51025;37.772;-122.432;2023-04-24T05:35:23;100933.73;;;21.45;26.99
64614;BME280;51025;37.772;-122.432;2023-04-24T05:37:52;100930.60;;;21.38;27.05
64614;BME280;51025;37.772;-122.432;2023-04-24T05:40:20;100925.97;;;21.79;26.75
64614;BME280;51025;37.772;-122.432;2023-04-24T05:42:48;100923.59;;;22.00;26.49
64614;BME280;51025;37.772;-122.432;2023-04-24T05:45:17;100927.12;;;21.89;26.56
64614;BME280;51025;37.772;-122.432;2023-04-24T05:47:45;100926.42;;;21.45;26.88
64614;BME280;51025;37.772;-122.432;2023-04-24T05:50:14;100925.42;;;21.88;26.54
64614;BME280;51025;37.772;-122.432;2023-04-24T05:52:42;100927.27;;;21.94;26.47
64614;BME280;51025;37.772;-122.432;2023-04-24T05:55:10;100925.87;;;21.93;26.39
64614;BME280;51025;37.772;-122.432;2023-04-24T05:57:38;100920.79;;;21.77;26.54
64614;BME280;51025;37.772;-122.432;2023-04-24T06:00:08;100918.12;;;21.78;26.48
64614;BME280;51025;37.772;-122.432;2023-04-24T06:02:37;100923.66;;;21.96;26.61
64614;BME280;51025;37.772;-122.432;2023-04-24T06:05:05;100921.76;;;21.43;26.63
64614;BME280;51025;37.772;-122.432;2023-04-24T06:07:34;100920.40;;;21.43;26.38
64614;BME280;51025;37.772;-122.432;2023-04-24T06:10:03;100918.22;;;21.63;26.41
64614;BME280;51025;37.772;-122.432;2023-04-24T06:12:31;100915.76;;;21.87;26.21
64614;BME280;51025;37.772;-122.432;2023-04-24T06:14:59;100915.35;;;21.71;26.33
64614;BME280;51025;37.772;-122.432;2023-04-24T06:17:27;100917.17;;;21.58;26.39
64614;BME280;51025;37.772;-122.432;2023-04-24T06:19:55;100919.50;;;21.54;26.35
64614;BME280;51025;37.772;-122.432;2023-04-24T06:22:24;100915.09;;;21.53;26.40
64614;BME280;51025;37.772;-122.432;2023-04-24T06:24:52;100909.46;;;21.21;26.54
64614;BME280;51025;37.772;-122.432;2023-04-24T06:27:20;100912.22;;;21.66;26.20
64614;BME280;51025;37.772;-122.432;2023-04-24T06:29:49;100914.23;;;21.53;26.58
64614;BME280;51025;37.772;-122.432;2023-04-24T06:32:17;100914.25;;;21.28;26.46
64614;BME280;51025;37.772;-122.432;2023-04-24T06:34:45;100917.50;;;21.34;26.36
64614;BME280;51025;37.772;-122.432;2023-04-24T06:37:14;100919.22;;;21.38;26.19
64614;BME280;51025;37.772;-122.432;2023-04-24T06:39:43;100922.44;;;20.57;27.10
64614;BME280;51025;37.772;-122.432;2023-04-24T06:42:12;100921.71;;;20.95;26.56
64614;BME280;51025;37.772;-122.432;2023-04-24T06:44:40;100921.88;;;20.81;26.59
64614;BME280;51025;37.772;-122.432;2023-04-24T06:47:10;100921.63;;;20.87;26.42
64614;BME280;51025;37.772;-122.432;2023-04-24T06:49:39;100924.68;;;19.83;27.31
64614;BME280;51025;37.772;-122.432;2023-04-24T06:52:07;100921.62;;;20.61;27.08
64614;BME280;51025;37.772;-122.432;2023-04-24T06:54:35;100913.05;;;21.17;26.56
64614;BME280;51025;37.772;-122.432;2023-04-24T06:57:04;100912.40;;;21.23;26.56
64614;BME280;51025;37.772;-122.432;2023-04-24T06:59:33;100923.93;;;20.55;26.69
64614;BME280;51025;37.772;-122.432;2023-04-24T07:02:01;100932.25;;;19.91;27.11
64614;BME280;51025;37.772;-122.432;2023-04-24T07:04:29;100932.62;;;19.61;27.30
64614;BME280;51025;37.772;-122.432;2023-04-24T07:06:58;100937.06;;;21.28;26.35
64614;BME280;51025;37.772;-122.432;2023-04-24T07:09:26;100926.39;;;20.18;27.04
64614;BME280;51025;37.772;-122.432;2023-04-24T07:11:55;100929.50;;;19.47;27.33
64614;BME280;51025;37.772;-122.432;2023-04-24T07:14:23;100926.19;;;20.17;27.06
64614;BME280;51025;37.772;-122.432;2023-04-24T07:16:51;100924.76;;;20.09;27.30
64614;BME280;51025;37.772;-122.432;2023-04-24T07:19:20;100928.14;;;20.61;26.44
64614;BME280;51025;37.772;-122.432;2023-04-24T07:21:48;100932.66;;;20.19;26.98
64614;BME280;51025;37.772;-122.432;2023-04-24T07:24:16;100937.43;;;20.37;26.76
64614;BME280;51025;37.772;-122.432;2023-04-24T07:26:44;100938.47;;;19.87;27.45
64614;BME280;51025;37.772;-122.432;2023-04-24T07:29:13;100938.40;;;19.31;27.28
64614;BME280;51025;37.772;-122.432;2023-04-24T07:31:41;100933.97;;;19.61;27.30
64614;BME280;51025;37.772;-122.432;2023-04-24T07:34:10;100941.52;;;19.05;27.39
64614;BME280;51025;37.772;-122.432;2023-04-24T07:36:38;100937.53;;;19.66;27.15
64614;BME280;51025;37.772;-122.432;2023-04-24T07:39:06;100946.42;;;19.97;27.19
64614;BME280;51025;37.772;-122.432;2023-04-24T07:41:34;100952.74;;;19.83;27.31
64614;BME280;51025;37.772;-122.432;2023-04-24T07:44:04;100954.93;;;19.51;27.22
64614;BME280;51025;37.772;-122.432;2023-04-24T07:46:32;100958.48;;;19.43;27.25
64614;BME280;51025;37.772;-122.432;2023-04-24T07:49:01;100960.92;;;19.23;27.43
64614;BME280;51025;37.772;-122.432;2023-04-24T07:51:30;100956.88;;;19.01;27.11
64614;BME280;51025;37.772;-122.432;2023-04-24T07:53:58;100949.93;;;19.25;27.30
64614;BME280;51025;37.772;-122.432;2023-04-24T07:56:26;100953.65;;;19.97;26.70
64614;BME280;51025;37.772;-122.432;2023-04-24T07:58:54;100953.79;;;19.93;26.86
64614;BME280;51025;37.772;-122.432;2023-04-24T08:01:22;100957.95;;;19.66;27.11
64614;BME280;51025;37.772;-122.432;2023-04-24T08:03:51;100955.65;;;19.20;27.16
64614;BME280;51025;37.772;-122.432;2023-04-24T08:06:19;100957.50;;;20.42;26.62
64614;BME280;51025;37.772;-122.432;2023-04-24T08:08:48;100955.28;;;19.48;27.21
64614;BME280;51025;37.772;-122.432;2023-04-24T08:11:17;100951.06;;;18.74;27.11
64614;BME280;51025;37.772;-122.432;2023-04-24T08:13:45;100952.03;;;19.55;27.06
64614;BME280;51025;37.772;-122.432;2023-04-24T08:16:13;100951.04;;;19.13;27.08
64614;BME280;51025;37.772;-122.432;2023-04-24T08:18:42;100952.74;;;19.00;27.14
64614;BME280;51025;37.772;-122.432;2023-04-24T08:21:10;100947.77;;;19.32;27.09
64614;BME280;51025;37.772;-122.432;2023-04-24T08:23:39;100948.26;;;19.47;26.86
64614;BME280;51025;37.772;-122.432;2023-04-24T08:26:07;100950.45;;;18.99;27.03
64614;BME280;51025;37.772;-122.432;2023-04-24T08:28:35;100945.91;;;18.89;27.06
64614;BME280;51025;37.772;-122.432;2023-04-24T08:31:04;100952.27;;;19.29;27.08
64614;BME280;51025;37.772;-122.432;2023-04-24T08:33:32;100953.82;;;19.01;27.00
64614;BME280;51025;37.772;-122.432;2023-04-24T08:36:01;100952.18;;;19.28;26.99
64614;BME280;51025;37.772;-122.432;2023-04-24T08:38:31;100947.01;;;18.92;26.97
64614;BME280;51025;37.772;-122.432;2023-04-24T08:41:01;100946.98;;;19.42;26.80
64614;BME280;51025;37.772;-122.432;2023-04-24T08:43:29;100951.20;;;19.17;27.00
64614;BME280;51025;37.772;-122.432;2023-04-24T08:45:59;100951.94;;;18.59;27.21
64614;BME280;51025;37.772;-122.432;2023-04-24T08:48:28;100947.37;;;19.26;26.85
64614;BME280;51025;37.772;-122.432;2023-04-24T08:50:57;100939.75;;;18.80;26.94
64614;BME280;51025;37.772;-122.432;2023-04-24T08:53:26;100938.65;;;18.83;27.22
64614;BME280;51025;37.772;-122.432;2023-04-24T08:55:56;100932.60;;;19.57;26.45
64614;BME280;51025;37.772;-122.432;2023-04-24T08:58:26;100941.43;;;19.10;26.85
64614;BME280;51025;37.772;-122.432;2023-04-24T09:00:56;100946.72;;;19.13;26.80
64614;BME280;51025;37.772;-122.432;2023-04-24T09:03:28;100943.58;;;18.77;26.84
64614;BME280;51025;37.772;-122.432;2023-04-24T09:05:58;100940.99;;;19.25;26.66
64614;BME280;51025;37.772;-122.432;2023-04-24T09:08:35;100938.03;;;19.01;26.77
64614;BME280;51025;37.772;-122.432;2023-04-24T09:11:04;100942.66;;;18.68;26.80
64614;BME280;51025;37.772;-122.432;2023-04-24T09:13:35;100943.80;;;19.06;26.71
64614;BME280;51025;37.772;-122.432;2023-04-24T09:16:04;100948.37;;;18.96;26.74
64614;BME280;51025;37.772;-122.432;2023-04-24T09:18:33;100950.42;;;19.01;26.68
64614;BME280;51025;37.772;-122.432;2023-04-24T09:21:07;100945.93;;;18.69;26.89
64614;BME280;51025;37.772;-122.432;2023-04-24T09:23:36;100937.71;;;18.87;26.71
64614;BME280;51025;37.772;-122.432;2023-04-24T09:26:05;100934.54;;;18.73;26.83
64614;BME280;51025;37.772;-122.432;2023-04-24T09:28:37;100928.84;;;19.68;26.11
64614;BME280;51025;37.772;-122.432;2023-04-24T09:31:08;100923.93;;;18.65;26.85
64614;BME280;51025;37.772;-122.432;2023-04-24T09:33:37;100919.05;;;20.03;25.62
64614;BME280;51025;37.772;-122.432;2023-04-24T09:36:06;100919.87;;;18.81;26.56
64614;BME280;51025;37.772;-122.432;2023-04-24T09:38:36;100921.01;;;18.67;26.63
64614;BME280;51025;37.772;-122.432;2023-04-24T09:41:07;100928.26;;;18.81;26.49
64614;BME280;51025;37.772;-122.432;2023-04-24T09:43:36;100934.18;;;18.59;26.66
64614;BME280;51025;37.772;-122.432;2023-04-24T09:46:06;100926.93;;;18.67;26.44
64614;BME280;51025;37.772;-122.432;2023-04-24T09:48:36;100918.48;;;18.46;26.60
64614;BME280;51025;37.772;-122.432;2023-04-24T09:51:06;100911.35;;;18.47;26.53
64614;BME280;51025;37.772;-122.432;2023-04-24T09:53:35;100909.51;;;18.43;26.27
64614;BME280;51025;37.772;-122.432;2023-04-24T09:56:08;100905.67;;;18.57;26.46
64614;BME280;51025;37.772;-122.432;2023-04-24T09:58:40;100902.91;;;18.48;26.47
64614;BME280;51025;37.772;-122.432;2023-04-24T10:01:08;100901.06;;;18.28;26.66
64614;BME280;51025;37.772;-122.432;2023-04-24T10:03:36;100905.22;;;18.91;26.32
64614;BME280;51025;37.772;-122.432;2023-04-24T10:06:05;100896.66;;;18.25;26.61
64614;BME280;51025;37.772;-122.432;2023-04-24T10:08:35;100897.47;;;18.15;26.63
64614;BME280;51025;37.772;-122.432;2023-04-24T10:11:04;100896.31;;;18.36;26.46
64614;BME280;51025;37.772;-122.432;2023-04-24T10:13:33;100896.66;;;18.71;26.15
64614;BME280;51025;37.772;-122.432;2023-04-24T10:16:02;100895.20;;;18.43;26.31
64614;BME280;51025;37.772;-122.432;2023-04-24T10:18:31;100898.14;;;18.27;26.35
64614;BME280;51025;37.772;-122.432;2023-04-24T10:21:00;100903.16;;;18.31;26.32
64614;BME280;51025;37.772;-122.432;2023-04-24T10:23:30;100910.20;;;18.61;26.04
64614;BME280;51025;37.772;-122.432;2023-04-24T10:26:01;100912.78;;;19.39;26.00
64614;BME280;51025;37.772;-122.432;2023-04-24T10:28:31;100915.31;;;18.92;26.04
64614;BME280;51025;37.772;-122.432;2023-04-24T10:31:00;100918.69;;;18.00;26.44
64614;BME280;51025;37.772;-122.432;2023-04-24T10:33:30;100927.04;;;18.12;26.35
64614;BME280;51025;37.772;-122.432;2023-04-24T10:36:00;100921.58;;;18.52;26.31
64614;BME280;51025;37.772;-122.432;2023-04-24T10:38:31;100913.59;;;18.10;26.32
64614;BME280;51025;37.772;-122.432;2023-04-24T10:41:08;100913.52;;;19.30;25.72
64614;BME280;51025;37.772;-122.432;2023-04-24T10:43:37;100912.78;;;17.93;26.45
64614;BME280;51025;37.772;-122.432;2023-04-24T10:46:08;100912.34;;;18.11;26.29
64614;BME280;51025;37.772;-122.432;2023-04-24T10:48:43;100914.02;;;18.06;26.20
64614;BME280;51025;37.772;-122.432;2023-04-24T10:51:12;100915.29;;;18.65;26.37
64614;BME280;51025;37.772;-122.432;2023-04-24T10:53:42;100911.32;;;17.88;26.36
64614;BME280;51025;37.772;-122.432;2023-04-24T10:56:15;100914.55;;;17.83;26.36
64614;BME280;51025;37.772;-122.432;2023-04-24T10:58:45;100916.52;;;18.73;25.69
64614;BME280;51025;37.772;-122.432;2023-04-24T11:01:24;100910.10;;;18.24;26.33
64614;BME280;51025;37.772;-122.432;2023-04-24T11:03:56;100910.43;;;18.67;26.21
64614;BME280;51025;37.772;-122.432;2023-04-24T11:06:30;100916.03;;;18.52;25.70
64614;BME280;51025;37.772;-122.432;2023-04-24T11:09:04;100919.90;;;17.72;26.37
64614;BME280;51025;37.772;-122.432;2023-04-24T11:11:33;100920.69;;;17.83;26.20
64614;BME280;51025;37.772;-122.432;2023-04-24T11:14:05;100921.48;;;18.28;26.16
64614;BME280;51025;37.772;-122.432;2023-04-24T11:16:36;100922.32;;;18.70;25.77
64614;BME280;51025;37.772;-122.432;2023-04-24T11:19:06;100929.02;;;18.14;26.28
64614;BME280;51025;37.772;-122.432;2023-04-24T11:21:43;100927.30;;;18.33;26.38
64614;BME280;51025;37.772;-122.432;2023-04-24T11:24:30;100927.72;;;17.56;26.37
64614;BME280;51025;37.772;-122.432;2023-04-24T11:27:05;100925.06;;;17.57;26.34
64614;BME280;51025;37.772;-122.432;2023-04-24T11:29:42;100918.17;;;17.50;26.35
64614;BME280;51025;37.772;-122.432;2023-04-24T11:32:18;100918.96;;;17.92;26.41
64614;BME280;51025;37.772;-122.432;2023-04-24T11:34:48;100912.03;;;17.78;26.12
64614;BME280;51025;37.772;-122.432;2023-04-24T11:37:17;100915.80;;;17.85;26.50
64614;BME280;51025;37.772;-122.432;2023-04-24T11:39:45;100920.23;;;17.85;26.37
64614;BME280;51025;37.772;-122.432;2023-04-24T11:42:15;100912.59;;;17.89;25.93
64614;BME280;51025;37.772;-122.432;2023-04-24T11:44:44;100915.04;;;18.33;26.25
64614;BME280;51025;37.772;-122.432;2023-04-24T11:47:13;100923.42;;;18.23;26.30
64614;BME280;51025;37.772;-122.432;2023-04-24T11:49:41;100927.27;;;17.94;26.19
64614;BME280;51025;37.772;-122.432;2023-04-24T11:52:09;100928.31;;;17.57;26.13
64614;BME280;51025;37.772;-122.432;2023-04-24T11:54:38;100925.05;;;17.72;26.34
64614;BME280;51025;37.772;-122.432;2023-04-24T11:57:14;100924.09;;;17.44;26.22
64614;BME280;51025;37.772;-122.432;2023-04-24T11:59:42;100927.50;;;17.91;26.44
64614;BME280;51025;37.772;-122.432;2023-04-24T12:02:21;100931.17;;;18.01;26.32
64614;BME280;51025;37.772;-122.432;2023-04-24T12:04:49;100931.92;;;17.39;26.20
64614;BME280;51025;37.772;-122.432;2023-04-24T12:07:18;100926.59;;;17.13;26.34
64614;BME280;51025;37.772;-122.432;2023-04-24T12:09:48;100924.96;;;18.45;25.77
64614;BME280;51025;37.772;-122.432;2023-04-24T12:12:18;100927.36;;;17.68;26.24
64614;BME280;51025;37.772;-122.432;2023-04-24T12:14:48;100928.63;;;17.81;26.02
64614;BME280;51025;37.772;-122.432;2023-04-24T12:17:16;100927.73;;;17.67;26.16
64614;BME280;51025;37.772;-122.432;2023-04-24T12:19:47;100928.55;;;17.78;26.34
64614;BME280;51025;37.772;-122.432;2023-04-24T12:22:16;100930.87;;;17.65;26.13
64614;BME280;51025;37.772;-122.432;2023-04-24T12:25:01;100931.09;;;17.93;26.21
64614;BME280;51025;37.772;-122.432;2023-04-24T12:27:31;100934.13;;;17.82;26.28
64614;BME280;51025;37.772;-122.432;2023-04-24T12:30:02;100935.17;;;17.83;26.23